createdAt,value
2022-12-18T00:00:22.562Z,14.13
2022-12-18T00:03:08.788Z,13.18
2022-12-18T00:05:55.413Z,12.60
2022-12-18T00:08:41.968Z,14.73
2022-12-18T00:11:29.520Z,13.85
2022-12-18T00:14:16.242Z,13.43
2022-12-18T00:17:03.010Z,14.05
2022-12-18T00:19:49.418Z,13.25
2022-12-18T00:22:35.576Z,14.45
2022-12-18T00:25:21.818Z,13.05
2022-12-18T00:28:07.955Z,10.82
2022-12-18T00:31:01.339Z,11.90
2022-12-18T00:33:47.947Z,11.52
2022-12-18T00:36:36.483Z,11.45
2022-12-18T00:39:22.860Z,10.40
2022-12-18T00:42:28.673Z,10.18
2022-12-18T00:45:15.148Z,10.38
2022-12-18T00:48:01.228Z,10.27
2022-12-18T00:50:47.397Z,11.13
2022-12-18T00:53:33.494Z,9.85
2022-12-18T00:56:19.771Z,10.65
2022-12-18T00:59:06.540Z,10.57
2022-12-18T01:01:53.082Z,10.27
2022-12-18T01:04:40.068Z,10.43
2022-12-18T01:07:26.710Z,9.90
2022-12-18T01:10:14.108Z,10.63
2022-12-18T01:13:00.537Z,10.23
2022-12-18T01:15:50.580Z,9.95
2022-12-18T01:18:37.416Z,10.13
2022-12-18T01:21:24.271Z,9.05
2022-12-18T01:24:13.541Z,10.20
2022-12-18T01:26:59.846Z,10.32
2022-12-18T01:29:46.079Z,9.45
2022-12-18T01:32:33.025Z,9.70
2022-12-18T01:35:19.700Z,9.27
2022-12-18T01:38:06.298Z,10.18
2022-12-18T01:40:58.835Z,9.55
2022-12-18T01:43:53.395Z,7.63
2022-12-18T01:46:39.826Z,8.98
2022-12-18T01:49:25.951Z,10.05
2022-12-18T01:52:12.271Z,9.00
2022-12-18T01:54:58.336Z,8.48
2022-12-18T01:57:47.417Z,9.07
2022-12-18T02:00:33.556Z,10.15
2022-12-18T02:03:19.928Z,8.82
2022-12-18T02:06:42.122Z,9.45
2022-12-18T02:09:35.617Z,9.88
2022-12-18T02:12:23.586Z,8.70
2022-12-18T02:15:33.400Z,9.38
2022-12-18T02:18:22.991Z,9.07
2022-12-18T02:21:12.233Z,9.63
2022-12-18T02:23:59.011Z,9.70
2022-12-18T02:26:50.736Z,9.55
2022-12-18T02:29:48.091Z,9.20
2022-12-18T02:32:39.637Z,8.88
2022-12-18T02:35:27.127Z,8.52
2022-12-18T02:38:18.160Z,9.18
2022-12-18T02:41:08.141Z,9.55
2022-12-18T02:43:57.496Z,9.32
2022-12-18T02:46:54.511Z,9.18
2022-12-18T02:49:59.507Z,9.45
2022-12-18T02:53:02.272Z,9.15
2022-12-18T02:55:54.893Z,9.80
2022-12-18T02:59:00.323Z,9.88
2022-12-18T03:02:18.881Z,10.27
2022-12-18T03:05:29.498Z,9.55
2022-12-18T03:08:27.248Z,10.65
2022-12-18T03:11:15.933Z,10.68
2022-12-18T03:14:04.628Z,10.15
2022-12-18T03:16:53.032Z,11.02
2022-12-18T03:19:40.507Z,10.48
2022-12-18T03:22:28.598Z,11.30
2022-12-18T03:25:15.894Z,11.23
2022-12-18T03:28:04.020Z,10.55
2022-12-18T03:30:54.187Z,11.50
2022-12-18T03:33:46.453Z,12.07
2022-12-18T03:39:21.103Z,10.45
2022-12-18T03:42:27.807Z,11.55
2022-12-18T03:45:34.695Z,11.50
2022-12-18T03:48:31.170Z,11.15
2022-12-18T03:51:24.990Z,10.70
2022-12-18T03:54:12.601Z,10.93
2022-12-18T03:57:08.508Z,11.23
2022-12-18T04:00:01.096Z,10.82
2022-12-18T04:03:01.766Z,10.70
2022-12-18T04:05:59.744Z,11.27
2022-12-18T04:08:47.070Z,10.77
2022-12-18T04:11:36.540Z,11.05
2022-12-18T04:14:24.230Z,10.18
2022-12-18T04:17:15.023Z,11.02
2022-12-18T04:20:00.947Z,10.27
2022-12-18T04:22:49.011Z,11.15
2022-12-18T04:25:35.297Z,11.18
2022-12-18T04:28:27.690Z,8.35
2022-12-18T04:31:13.700Z,10.95
2022-12-18T04:33:59.804Z,10.38
2022-12-18T04:36:46.418Z,10.88
2022-12-18T04:39:34.100Z,11.13
2022-12-18T04:42:25.680Z,10.15
2022-12-18T04:45:11.980Z,10.85
2022-12-18T04:47:59.499Z,9.60
2022-12-18T04:50:45.901Z,10.82
2022-12-18T04:53:32.075Z,9.75
2022-12-18T04:56:18.898Z,9.77
2022-12-18T04:59:04.895Z,10.10
2022-12-18T05:01:51.325Z,10.18
2022-12-18T05:04:37.683Z,10.23
2022-12-18T05:07:24.006Z,10.20
2022-12-18T05:10:10.684Z,9.77
2022-12-18T05:13:01.258Z,9.45
2022-12-18T05:15:53.930Z,8.80
2022-12-18T05:18:40.834Z,9.65
2022-12-18T05:21:27.479Z,10.15
2022-12-18T05:24:13.741Z,10.15
2022-12-18T05:27:00.005Z,9.57
2022-12-18T05:29:46.385Z,9.43
2022-12-18T05:32:32.474Z,9.77
2022-12-18T05:35:18.672Z,9.57
2022-12-18T05:38:05.339Z,9.45
2022-12-18T05:40:52.081Z,9.20
2022-12-18T05:43:40.168Z,10.65
2022-12-18T05:46:26.913Z,10.32
2022-12-18T05:49:13.214Z,9.65
2022-12-18T05:51:59.340Z,10.90
2022-12-18T05:54:45.563Z,10.07
2022-12-18T05:57:31.778Z,9.88
2022-12-18T06:00:18.093Z,9.63
2022-12-18T06:03:04.714Z,10.23
2022-12-18T06:05:51.002Z,10.57
2022-12-18T06:08:41.451Z,10.35
2022-12-18T06:11:30.925Z,10.88
2022-12-18T06:14:18.409Z,10.35
2022-12-18T06:17:04.884Z,10.13
2022-12-18T06:19:50.936Z,10.25
2022-12-18T06:22:37.519Z,10.88
2022-12-18T06:25:23.696Z,10.93
2022-12-18T06:28:09.787Z,11.65
2022-12-18T06:30:57.075Z,11.68
2022-12-18T06:33:43.570Z,12.18
2022-12-18T06:36:29.786Z,11.48
2022-12-18T06:39:15.958Z,11.50
2022-12-18T06:42:02.940Z,12.27
2022-12-18T06:44:49.289Z,12.00
2022-12-18T06:47:35.495Z,11.35
2022-12-18T06:50:21.819Z,11.00
2022-12-18T06:53:07.995Z,10.95
2022-12-18T06:55:54.800Z,11.10
2022-12-18T06:58:41.489Z,10.65
2022-12-18T07:01:27.803Z,10.88
2022-12-18T07:04:14.021Z,11.25
2022-12-18T07:07:00.887Z,11.02
2022-12-18T07:09:47.057Z,10.68
2022-12-18T07:12:33.662Z,11.35
2022-12-18T07:15:19.918Z,11.02
2022-12-18T07:18:06.052Z,11.55
2022-12-18T07:20:52.454Z,11.10
2022-12-18T07:23:38.974Z,11.73
2022-12-18T07:26:25.563Z,11.95
2022-12-18T07:29:12.028Z,11.30
2022-12-18T07:31:58.340Z,10.95
2022-12-18T07:34:44.785Z,12.30
2022-12-18T07:37:31.109Z,12.35
2022-12-18T07:40:17.235Z,12.38
2022-12-18T07:43:03.743Z,11.82
2022-12-18T07:45:51.845Z,11.90
2022-12-18T07:48:38.028Z,12.32
2022-12-18T07:51:23.987Z,12.55
2022-12-18T07:54:10.333Z,12.75
2022-12-18T07:56:56.649Z,13.40
2022-12-18T07:59:43.105Z,12.88
2022-12-18T08:02:32.096Z,12.63
2022-12-18T08:05:18.537Z,13.15
2022-12-18T08:08:04.758Z,13.63
2022-12-18T08:10:50.971Z,13.13
2022-12-18T08:13:37.280Z,13.20
2022-12-18T08:16:24.233Z,13.32
2022-12-18T08:19:11.974Z,13.90
2022-12-18T08:21:58.373Z,13.63
2022-12-18T08:24:44.604Z,13.05
2022-12-18T08:27:30.852Z,13.35
2022-12-18T08:30:17.545Z,12.48
2022-12-18T08:33:05.042Z,13.05
2022-12-18T08:35:51.682Z,13.55
2022-12-18T08:38:38.131Z,13.43
2022-12-18T08:41:25.073Z,12.73
2022-12-18T08:44:36.944Z,12.27
2022-12-18T08:47:27.048Z,13.38
2022-12-18T08:50:13.589Z,12.23
2022-12-18T08:52:59.997Z,13.00
2022-12-18T08:55:50.219Z,11.73
2022-12-18T08:58:36.693Z,12.07
2022-12-18T09:01:23.010Z,12.07
2022-12-18T09:04:10.239Z,12.85
2022-12-18T09:06:56.943Z,12.77
2022-12-18T09:09:43.107Z,11.93
2022-12-18T09:12:29.331Z,12.43
2022-12-18T09:15:15.455Z,12.50
2022-12-18T09:18:01.796Z,13.00
2022-12-18T09:20:48.530Z,12.68
2022-12-18T09:23:34.910Z,11.85
2022-12-18T09:26:22.364Z,12.50
2022-12-18T09:29:08.900Z,12.05
2022-12-18T09:31:55.348Z,12.07
2022-12-18T09:34:41.750Z,11.32
2022-12-18T09:37:29.265Z,12.02
2022-12-18T09:40:21.296Z,11.68
2022-12-18T09:43:08.833Z,12.40
2022-12-18T09:46:00.298Z,12.30
2022-12-18T09:48:49.710Z,12.23
2022-12-18T09:51:39.457Z,11.75
2022-12-18T09:54:34.914Z,12.55
2022-12-18T09:57:23.807Z,12.77
2022-12-18T10:00:22.257Z,13.05
2022-12-18T10:03:14.572Z,13.05
2022-12-18T10:06:08.764Z,13.10
2022-12-18T10:12:07.944Z,13.07
2022-12-18T10:15:13.956Z,12.93
2022-12-18T10:18:03.671Z,12.90
2022-12-18T10:21:02.381Z,12.35
2022-12-18T10:24:00.803Z,13.80
2022-12-18T10:26:55.081Z,13.50
2022-12-18T10:29:41.259Z,13.82
2022-12-18T10:32:28.964Z,13.50
2022-12-18T10:35:25.813Z,14.32
2022-12-18T10:38:18.441Z,12.95
2022-12-18T10:41:06.264Z,13.65
2022-12-18T10:44:13.759Z,13.68
2022-12-18T10:47:10.176Z,12.75
2022-12-18T10:49:58.937Z,13.48
2022-12-18T10:52:45.358Z,13.85
2022-12-18T10:55:39.541Z,14.65
2022-12-18T10:58:36.747Z,14.65
2022-12-18T11:01:23.807Z,15.48
2022-12-18T11:04:10.838Z,16.45
2022-12-18T11:07:08.039Z,15.40
2022-12-18T11:10:03.644Z,15.02
2022-12-18T11:12:50.283Z,15.02
2022-12-18T11:15:37.185Z,15.05
2022-12-18T11:18:26.585Z,15.02
2022-12-18T11:21:15.163Z,14.85
2022-12-18T11:24:01.866Z,16.35
2022-12-18T11:26:48.107Z,16.63
2022-12-18T11:29:46.708Z,15.43
2022-12-18T11:32:41.911Z,15.80
2022-12-18T11:35:34.277Z,16.88
2022-12-18T11:38:26.546Z,16.30
2022-12-18T11:41:13.236Z,17.55
2022-12-18T11:44:01.524Z,17.73
2022-12-18T11:46:58.782Z,17.77
2022-12-18T11:49:55.426Z,17.52
2022-12-18T11:52:43.301Z,17.45
2022-12-18T11:56:13.627Z,16.67
2022-12-18T11:59:10.982Z,17.67
2022-12-18T12:02:22.532Z,17.52
2022-12-18T12:08:33.491Z,18.13
2022-12-18T12:11:21.003Z,18.27
2022-12-18T12:14:13.530Z,18.40
2022-12-18T12:20:56.290Z,18.55
2022-12-18T12:23:43.385Z,18.77
2022-12-18T12:26:58.650Z,18.60
2022-12-18T12:29:53.001Z,18.85
2022-12-18T12:32:42.732Z,18.95
2022-12-18T12:39:16.861Z,19.23
2022-12-18T12:42:24.591Z,17.98
2022-12-18T12:45:28.920Z,18.52
2022-12-18T12:51:45.584Z,19.25
2022-12-18T12:54:36.589Z,18.90
2022-12-18T12:57:37.402Z,18.67
2022-12-18T13:00:36.233Z,17.90
2022-12-18T13:03:36.499Z,18.67
2022-12-18T13:06:36.900Z,19.23
2022-12-18T13:31:49.585Z,17.13
2022-12-18T13:34:37.387Z,17.48
2022-12-18T13:37:35.173Z,17.90
2022-12-18T13:40:51.927Z,17.15
2022-12-18T13:43:47.704Z,17.70
2022-12-18T13:46:59.577Z,16.67
2022-12-18T13:49:48.903Z,15.90
2022-12-18T13:52:38.383Z,16.77
2022-12-18T13:55:25.642Z,16.75
2022-12-18T13:58:19.065Z,16.60
2022-12-18T14:01:06.557Z,17.38
2022-12-18T14:04:10.401Z,15.90
2022-12-18T14:07:26.803Z,16.05
2022-12-18T14:10:47.974Z,16.23
2022-12-18T14:13:38.728Z,15.48
2022-12-18T14:16:29.336Z,15.63
2022-12-18T14:19:21.532Z,15.25
2022-12-18T14:22:13.756Z,15.70
2022-12-18T14:25:17.164Z,12.50
2022-12-18T14:31:12.734Z,16.15
2022-12-18T14:34:00.080Z,15.43
2022-12-18T14:36:57.812Z,15.52
2022-12-18T14:39:54.035Z,16.88
2022-12-18T14:42:40.437Z,15.93
2022-12-18T14:45:43.792Z,16.42
2022-12-18T14:48:37.330Z,15.70
2022-12-18T14:51:26.452Z,15.20
2022-12-18T14:54:20.590Z,15.50
2022-12-18T14:57:26.783Z,15.77
2022-12-18T15:03:21.730Z,14.70
2022-12-18T15:06:18.591Z,16.85
2022-12-18T15:12:32.771Z,15.45
2022-12-18T15:18:46.392Z,15.38
2022-12-18T15:21:33.627Z,16.05
2022-12-18T15:24:23.758Z,14.57
2022-12-18T15:27:31.119Z,14.00
2022-12-18T15:30:19.571Z,15.02
2022-12-18T15:33:23.878Z,15.20
2022-12-18T15:39:21.544Z,13.77
2022-12-18T15:52:01.796Z,12.60
2022-12-18T15:55:07.097Z,13.23
2022-12-18T15:57:55.168Z,12.80
2022-12-18T16:00:42.800Z,11.85
2022-12-18T16:03:30.631Z,11.50
2022-12-18T16:06:16.880Z,12.32
2022-12-18T16:09:03.301Z,12.50
2022-12-18T16:11:59.417Z,12.43
2022-12-18T16:14:45.998Z,12.10
2022-12-18T16:17:32.264Z,11.20
2022-12-18T16:20:19.477Z,12.38
2022-12-18T16:23:05.910Z,12.32
2022-12-18T16:25:53.138Z,12.68
2022-12-18T16:28:42.542Z,12.75
2022-12-18T16:31:34.419Z,12.23
2022-12-18T16:34:29.566Z,12.23
2022-12-18T16:37:19.397Z,12.30
2022-12-18T16:40:06.773Z,12.35
2022-12-18T17:20:18.205Z,10.25
2022-12-18T17:23:06.507Z,10.50
2022-12-18T17:25:56.696Z,10.55
2022-12-18T17:28:43.931Z,10.75
2022-12-18T17:40:47.192Z,10.00
2022-12-18T17:43:39.505Z,9.68
2022-12-18T17:46:30.995Z,9.55
2022-12-18T17:49:17.723Z,9.88
2022-12-18T17:52:07.167Z,9.88
2022-12-18T17:54:56.286Z,9.45
2022-12-18T17:57:43.948Z,9.02
2022-12-18T18:00:33.102Z,8.85
2022-12-18T18:03:19.724Z,8.30
2022-12-18T18:06:06.669Z,8.77
2022-12-18T18:08:54.418Z,9.35
2022-12-18T18:12:12.654Z,7.80
2022-12-18T18:14:59.586Z,7.95
2022-12-18T18:17:47.009Z,7.82
2022-12-18T18:20:36.462Z,7.55
2022-12-18T18:23:23.892Z,7.18
2022-12-18T18:26:10.640Z,7.53
2022-12-18T18:29:01.964Z,7.28
2022-12-18T18:31:50.441Z,7.53
2022-12-18T18:34:40.226Z,7.40
2022-12-18T18:37:29.200Z,7.38
2022-12-18T18:40:24.730Z,7.10
2022-12-18T18:43:24.237Z,6.65
2022-12-18T18:50:17.128Z,6.60
2022-12-18T18:53:07.563Z,5.60
2022-12-18T18:59:05.315Z,6.97
2022-12-18T19:01:53.725Z,6.53
2022-12-18T19:04:46.991Z,7.53
2022-12-18T19:07:37.285Z,6.35
2022-12-18T19:10:28.448Z,6.10
2022-12-18T19:13:27.523Z,6.35
2022-12-18T19:16:17.004Z,6.65
2022-12-18T19:19:05.345Z,6.00
2022-12-18T19:25:44.017Z,6.15
2022-12-18T19:28:31.022Z,5.82
2022-12-18T19:31:27.045Z,6.10
2022-12-18T19:34:15.080Z,6.43
2022-12-18T19:37:08.921Z,6.05
2022-12-18T19:39:59.614Z,5.60
2022-12-18T19:42:48.821Z,5.95
2022-12-18T19:45:35.486Z,6.18
2022-12-18T19:48:27.788Z,5.97
2022-12-18T19:51:22.622Z,6.70
2022-12-18T19:54:17.387Z,5.95
2022-12-18T19:57:07.369Z,6.80
2022-12-18T19:59:57.848Z,6.47
2022-12-18T20:02:44.631Z,6.18
2022-12-18T20:05:31.453Z,6.60
2022-12-18T20:08:20.886Z,6.45
2022-12-18T20:11:28.053Z,5.78
2022-12-18T20:14:19.636Z,5.72
2022-12-18T20:17:10.105Z,5.45
2022-12-18T20:19:57.226Z,5.63
2022-12-18T20:22:48.404Z,5.88
2022-12-18T20:25:35.416Z,6.53
2022-12-18T20:28:44.034Z,5.85
2022-12-18T20:34:50.880Z,5.80
2022-12-18T20:37:38.027Z,6.55
2022-12-18T20:40:53.783Z,6.38
2022-12-18T20:46:48.713Z,6.22
2022-12-18T20:49:35.483Z,6.00
2022-12-18T20:52:23.678Z,5.88
2022-12-18T20:55:10.503Z,6.55
2022-12-18T20:57:57.378Z,5.80
2022-12-18T21:00:43.678Z,6.18
2022-12-18T21:03:30.153Z,6.57
2022-12-18T21:06:17.982Z,5.90
2022-12-18T21:09:04.847Z,6.05
2022-12-18T21:12:14.347Z,5.80
2022-12-18T21:15:02.718Z,6.38
2022-12-18T21:17:49.350Z,6.00
2022-12-18T21:20:35.772Z,6.10
2022-12-18T21:23:21.868Z,6.30
2022-12-18T21:26:41.848Z,6.00
2022-12-18T21:29:32.347Z,5.43
2022-12-18T21:38:02.708Z,5.28
2022-12-18T21:40:51.773Z,5.40
2022-12-18T21:43:57.258Z,5.22
2022-12-18T21:46:44.875Z,4.95
2022-12-18T21:49:32.417Z,5.22
2022-12-18T21:52:18.692Z,5.05
2022-12-18T21:56:03.019Z,5.78
2022-12-18T21:58:55.241Z,6.03
2022-12-18T22:01:47.915Z,6.95
2022-12-18T22:04:36.628Z,6.65
2022-12-18T22:07:27.318Z,7.03
2022-12-18T22:10:14.056Z,6.00
2022-12-18T22:13:02.042Z,6.45
2022-12-18T22:15:48.973Z,6.55
2022-12-18T22:18:41.972Z,6.03
2022-12-18T22:21:29.712Z,5.72
2022-12-18T22:24:18.120Z,5.85
2022-12-18T22:27:05.777Z,6.25
2022-12-18T22:30:07.374Z,6.18
2022-12-18T22:32:53.297Z,5.40
2022-12-18T22:35:39.943Z,5.95
2022-12-18T22:38:26.255Z,5.28
2022-12-18T22:41:13.000Z,5.95
2022-12-18T22:43:59.880Z,6.40
2022-12-18T22:46:51.043Z,5.90
2022-12-18T22:49:46.595Z,5.93
2022-12-18T22:52:32.846Z,5.72
2022-12-18T22:55:18.919Z,5.38
2022-12-18T22:58:05.149Z,5.32
2022-12-18T23:00:51.376Z,5.97
2022-12-18T23:03:37.967Z,5.82
2022-12-18T23:06:26.235Z,6.07
2022-12-18T23:09:17.417Z,5.90
2022-12-18T23:12:04.519Z,6.15
2022-12-18T23:14:50.545Z,6.15
2022-12-18T23:17:36.770Z,7.00
2022-12-18T23:20:23.022Z,6.63
2022-12-18T23:23:09.094Z,5.60
2022-12-18T23:26:01.048Z,6.38
2022-12-18T23:28:47.614Z,6.82
2022-12-18T23:31:38.763Z,6.55
2022-12-18T23:34:25.160Z,6.97
2022-12-18T23:37:12.073Z,7.50
2022-12-18T23:39:58.327Z,7.75
2022-12-18T23:42:45.288Z,7.97
2022-12-18T23:45:32.098Z,7.95
2022-12-18T23:48:19.225Z,7.88
2022-12-18T23:51:08.840Z,8.05
2022-12-18T23:53:56.935Z,7.43
2022-12-18T23:56:43.764Z,7.78
2022-12-18T23:59:30.783Z,7.78
